Time;durP1;ratioP1;P1;durP2;ratioP2;P2;SDS_P1;SDS_P2;PMS_P1;PMS_P2;Temp;Humidity;BMP_temperature;BMP_pressure;BME280_temperature;BME280_humidity;BME280_pressure;Samples;Min_cycle;Max_cycle;Signal;HPM_P1;HPM_P2
2022/04/01 00:02:23;;;;;;;11.32;10.15;;;6.20;99.90;;;;;;5051751;28;20533;-76
2022/04/01 00:04:48;;;;;;;12.82;11.55;;;6.20;99.90;;;;;;5052631;28;20323;-76
2022/04/01 00:07:15;;;;;;;10.10;9.27;;;6.20;99.90;;;;;;5051396;28;20584;-77
2022/04/01 00:09:40;;;;;;;11.43;10.23;;;6.20;99.90;;;;;;5050890;28;20207;-76
2022/04/01 00:12:07;;;;;;;12.13;10.87;;;6.20;99.90;;;;;;5052512;28;20573;-76
2022/04/01 00:14:33;;;;;;;10.20;9.30;;;6.20;99.90;;;;;;5052729;28;20176;-76
2022/04/01 00:17:00;;;;;;;11.67;10.47;;;6.20;99.90;;;;;;5051441;28;20165;-76
2022/04/01 00:19:27;;;;;;;10.00;9.00;;;6.20;99.90;;;;;;5052104;28;20283;-76
2022/04/01 00:21:54;;;;;;;12.63;11.43;;;6.20;99.90;;;;;;5050952;28;20646;-76
2022/04/01 00:24:21;;;;;;;10.38;9.48;;;6.20;99.90;;;;;;5051993;28;20169;-76
2022/04/01 00:26:49;;;;;;;10.80;9.80;;;6.20;99.90;;;;;;5052551;28;20164;-77
2022/04/01 00:29:15;;;;;;;10.57;9.68;;;6.20;99.90;;;;;;5051104;28;20633;-77
2022/04/01 00:31:45;;;;;;;11.35;10.35;;;6.30;99.90;;;;;;5054185;28;20165;-76
2022/04/01 00:34:17;;;;;;;11.32;10.25;;;6.30;99.90;;;;;;5051214;28;20220;-77
2022/04/01 00:36:48;;;;;;;10.88;9.80;;;6.30;99.90;;;;;;5051154;28;20189;-76
2022/04/01 00:39:15;;;;;;;12.07;10.98;;;6.30;99.90;;;;;;5050650;28;20183;-76
2022/04/01 00:41:44;;;;;;;11.57;10.40;;;6.30;99.90;;;;;;5052266;28;20295;-76
2022/04/01 00:44:13;;;;;;;13.13;11.82;;;6.30;99.90;;;;;;5050931;28;20183;-77
2022/04/01 00:46:41;;;;;;;12.18;10.98;;;6.30;99.90;;;;;;5052040;28;20202;-77
2022/04/01 00:49:06;;;;;;;12.45;11.25;;;6.30;99.90;;;;;;5050367;28;20514;-76
2022/04/01 00:51:33;;;;;;;12.40;11.10;;;6.30;99.90;;;;;;5051984;28;20306;-77
2022/04/01 00:53:58;;;;;;;12.48;11.20;;;6.30;99.90;;;;;;5034434;28;20195;-76
2022/04/01 00:56:31;;;;;;;12.87;11.70;;;6.40;99.90;;;;;;5050701;28;20217;-75
2022/04/01 00:58:58;;;;;;;14.73;13.30;;;6.40;99.90;;;;;;5050385;28;20169;-76
2022/04/01 01:01:24;;;;;;;10.45;9.45;;;6.40;99.90;;;;;;5051773;28;20203;-76
2022/04/01 01:03:50;;;;;;;10.88;9.85;;;6.40;99.90;;;;;;5051902;28;20192;-76
2022/04/01 01:06:18;;;;;;;12.00;10.90;;;6.40;99.90;;;;;;5051936;28;20554;-76
2022/04/01 01:08:44;;;;;;;12.48;11.30;;;6.40;99.90;;;;;;5051696;28;20182;-76
2022/04/01 01:11:10;;;;;;;11.20;10.23;;;6.40;99.90;;;;;;5050373;28;20175;-76
2022/04/01 01:13:36;;;;;;;10.93;9.93;;;6.40;99.90;;;;;;5050802;28;20165;-75
2022/04/01 01:16:02;;;;;;;9.30;8.40;;;6.40;99.90;;;;;;5034196;28;20200;-76
2022/04/01 01:18:28;;;;;;;9.00;8.17;;;6.40;99.90;;;;;;5051358;28;21034;-76
2022/04/01 01:20:54;;;;;;;8.95;8.15;;;6.40;99.90;;;;;;5050872;28;20722;-76
2022/04/01 01:23:26;;;;;;;11.00;10.00;;;6.40;99.90;;;;;;5034954;28;20260;-77
2022/04/01 01:25:52;;;;;;;9.75;8.90;;;6.50;99.90;;;;;;5050362;28;20638;-77
2022/04/01 01:28:18;;;;;;;8.83;8.10;;;6.50;99.90;;;;;;5050437;28;20241;-77
2022/04/01 01:30:44;;;;;;;7.53;6.93;;;6.50;99.90;;;;;;5051483;28;20187;-76
2022/04/01 01:33:11;;;;;;;6.77;6.20;;;6.50;99.90;;;;;;5051586;28;20161;-76
2022/04/01 01:35:37;;;;;;;6.22;5.75;;;6.40;99.90;;;;;;5033609;28;20606;-76
2022/04/01 01:38:02;;;;;;;6.63;6.03;;;6.40;99.90;;;;;;5050175;28;20169;-76
2022/04/01 01:40:28;;;;;;;6.50;6.00;;;6.40;99.90;;;;;;5051313;28;20596;-76
2022/04/01 01:42:54;;;;;;;7.60;7.00;;;6.40;99.90;;;;;;5033520;28;20580;-76
2022/04/01 01:45:20;;;;;;;6.43;5.93;;;6.40;99.90;;;;;;5038525;28;20614;-76
2022/04/01 01:47:45;;;;;;;6.63;6.13;;;6.40;99.90;;;;;;5049956;28;20169;-76
2022/04/01 01:55:42;;;;;;;5.80;5.40;;;6.40;99.90;;;;;;5033404;28;20200;-76
2022/04/01 01:58:08;;;;;;;7.50;6.90;;;6.40;99.90;;;;;;5049758;28;20169;-76
2022/04/01 02:00:36;;;;;;;8.50;7.80;;;6.30;99.90;;;;;;5033112;28;20952;-76
2022/04/01 02:03:04;;;;;;;7.00;6.40;;;6.30;99.90;;;;;;5050059;28;20272;-76
2022/04/01 02:05:30;;;;;;;6.82;6.18;;;6.30;99.90;;;;;;5051040;28;20254;-76
2022/04/01 02:07:56;;;;;;;6.10;5.60;;;6.30;99.90;;;;;;5049625;28;20173;-75
2022/04/01 02:10:22;;;;;;;5.60;5.20;;;6.30;99.90;;;;;;5051061;28;20531;-76
2022/04/01 02:12:48;;;;;;;7.53;6.93;;;6.20;99.90;;;;;;5049836;28;20180;-76
2022/04/01 02:15:17;;;;;;;6.88;6.35;;;6.20;99.90;;;;;;5051010;28;20188;-76
2022/04/01 02:17:43;;;;;;;8.45;7.75;;;6.20;99.90;;;;;;5050852;28;20185;-76
2022/04/01 02:20:09;;;;;;;7.10;6.50;;;6.20;99.90;;;;;;5049668;28;20239;-76
2022/04/01 02:22:38;;;;;;;6.70;6.20;;;6.20;99.90;;;;;;5053217;28;20622;-76
2022/04/01 02:25:07;;;;;;;7.07;6.50;;;6.20;99.90;;;;;;5049675;28;20217;-76
2022/04/01 02:27:34;;;;;;;6.35;5.85;;;6.20;99.90;;;;;;5049626;28;20244;-76
2022/04/01 02:30:01;;;;;;;6.55;6.05;;;6.20;99.90;;;;;;5049370;28;20183;-76
2022/04/01 02:32:53;;;;;;;6.93;6.32;;;6.10;99.90;;;;;;5054079;28;20348;-76
2022/04/01 02:35:23;;;;;;;6.72;6.20;;;6.10;99.90;;;;;;5053557;28;20235;-76
2022/04/01 02:37:49;;;;;;;5.72;5.22;;;6.10;99.90;;;;;;5052975;28;20172;-76
2022/04/01 02:40:15;;;;;;;7.23;6.60;;;6.10;99.90;;;;;;5053271;28;20537;-76
2022/04/01 02:42:42;;;;;;;7.18;6.57;;;6.10;99.90;;;;;;5053344;28;20576;-76
2022/04/01 02:45:16;;;;;;;5.47;5.07;;;6.00;99.90;;;;;;5053048;28;20284;-76
2022/04/01 02:47:43;;;;;;;6.70;6.20;;;6.00;99.90;;;;;;5053014;28;20173;-76
2022/04/01 02:50:08;;;;;;;7.37;6.77;;;6.00;99.90;;;;;;5053080;28;20172;-76
2022/04/01 02:52:34;;;;;;;6.27;5.80;;;6.00;99.90;;;;;;5053183;28;20628;-76
2022/04/01 02:55:02;;;;;;;6.85;6.35;;;6.00;99.90;;;;;;5052911;28;20598;-76
2022/04/01 02:57:28;;;;;;;8.13;7.43;;;6.00;99.90;;;;;;5052990;28;20161;-76
2022/04/01 02:59:53;;;;;;;7.67;7.07;;;6.00;99.90;;;;;;5055387;28;20189;-76
2022/04/01 03:02:19;;;;;;;7.57;6.97;;;6.00;99.90;;;;;;5046634;28;20174;-76
2022/04/01 03:04:46;;;;;;;6.80;6.20;;;6.00;99.90;;;;;;5043043;28;20663;-76
2022/04/01 03:07:11;;;;;;;6.83;6.17;;;6.00;99.90;;;;;;5046607;28;20176;-75
2022/04/01 03:09:38;;;;;;;8.10;7.40;;;6.00;99.90;;;;;;5047437;28;20307;-76
2022/04/01 03:12:08;;;;;;;7.28;6.60;;;6.00;99.90;;;;;;5046995;28;20173;-76
2022/04/01 03:14:46;;;;;;;6.45;5.90;;;6.00;99.90;;;;;;5047362;28;20604;-76
2022/04/01 03:17:33;;;;;;;5.97;5.47;;;6.00;99.90;;;;;;5029292;28;20188;-76
2022/04/01 03:20:01;;;;;;;6.60;5.97;;;5.90;99.90;;;;;;5043115;28;20201;-76
2022/04/01 03:22:28;;;;;;;7.13;5.75;;;5.90;99.90;;;;;;5048821;28;20570;-76
2022/04/01 03:24:54;;;;;;;5.63;5.13;;;5.90;99.90;;;;;;5028060;28;20226;-76
2022/04/01 03:27:20;;;;;;;6.35;5.75;;;5.90;99.90;;;;;;5052171;28;20175;-76
2022/04/01 03:29:46;;;;;;;7.00;5.63;;;5.90;99.90;;;;;;5052113;28;20177;-76
2022/04/01 03:32:13;;;;;;;6.28;5.78;;;5.90;99.90;;;;;;5052439;28;20657;-76
2022/04/01 03:34:41;;;;;;;6.63;5.97;;;5.90;99.90;;;;;;5036033;28;20855;-76
2022/04/01 03:37:07;;;;;;;6.10;5.60;;;5.90;99.90;;;;;;5055249;28;20200;-76
2022/04/01 03:39:35;;;;;;;6.00;5.50;;;5.90;99.90;;;;;;5035341;28;20201;-76
2022/04/01 03:42:06;;;;;;;6.40;5.80;;;5.90;99.90;;;;;;5052047;28;20169;-76
2022/04/01 03:44:36;;;;;;;6.80;6.10;;;5.90;99.90;;;;;;5050879;28;20244;-76
2022/04/01 03:47:49;;;;;;;6.25;5.65;;;5.90;99.90;;;;;;5023721;28;20573;-75
2022/04/01 03:50:17;;;;;;;7.97;7.18;;;5.80;99.90;;;;;;5051822;28;20191;-75
2022/04/01 03:52:47;;;;;;;8.20;6.88;;;5.80;99.90;;;;;;5051887;28;20250;-77
2022/04/01 03:55:14;;;;;;;7.30;6.63;;;5.80;99.90;;;;;;5051969;28;20199;-75
2022/04/01 03:58:05;;;;;;;6.90;6.30;;;5.80;99.90;;;;;;5052202;28;20192;-77
2022/04/01 04:00:54;;;;;;;6.57;5.97;;;5.80;99.90;;;;;;5052754;28;20197;-77
2022/04/01 04:03:20;;;;;;;6.90;6.30;;;5.80;99.90;;;;;;5051780;28;20655;-77
2022/04/01 04:05:47;;;;;;;6.40;5.82;;;5.80;99.90;;;;;;5052915;28;20602;-78
2022/04/01 04:08:18;;;;;;;8.10;7.50;;;5.80;99.90;;;;;;5052437;28;20248;-78
2022/04/01 04:10:46;;;;;;;6.43;5.93;;;5.80;99.90;;;;;;5034833;28;20273;-77
2022/04/01 04:13:37;;;;;;;6.25;5.68;;;5.70;99.90;;;;;;5053806;28;20177;-77
2022/04/01 04:16:15;;;;;;;6.55;5.95;;;5.70;99.90;;;;;;5034907;28;20193;-78
2022/04/01 04:18:47;;;;;;;6.00;5.50;;;5.60;99.90;;;;;;5051313;28;20164;-77
2022/04/01 04:21:29;;;;;;;6.75;6.15;;;5.60;99.90;;;;;;5051150;28;20208;-77
2022/04/01 04:24:03;;;;;;;7.00;6.40;;;5.60;99.90;;;;;;5051570;28;20161;-77
2022/04/01 04:26:40;;;;;;;7.57;6.88;;;5.50;99.90;;;;;;5051383;28;20246;-77
2022/04/01 04:29:10;;;;;;;6.15;5.65;;;5.50;99.90;;;;;;5051095;28;20171;-78
2022/04/01 04:32:03;;;;;;;6.95;6.32;;;5.50;99.90;;;;;;5051234;28;20175;-76
2022/04/01 04:34:36;;;;;;;6.13;5.53;;;5.40;99.90;;;;;;5051312;28;20181;-76
2022/04/01 04:37:08;;;;;;;7.93;7.18;;;5.40;99.90;;;;;;5051484;28;20188;-77
2022/04/01 04:39:38;;;;;;;6.78;5.93;;;5.40;99.90;;;;;;5050975;28;20200;-76
2022/04/01 04:42:05;;;;;;;6.05;5.45;;;5.40;99.90;;;;;;5051261;28;20169;-76
2022/04/01 04:44:31;;;;;;;6.32;5.82;;;5.40;99.90;;;;;;5050890;28;20169;-77
2022/04/01 04:47:00;;;;;;;5.40;5.00;;;5.40;99.90;;;;;;5051595;28;20181;-77
2022/04/01 04:49:28;;;;;;;7.90;5.18;;;5.40;99.90;;;;;;5053047;28;20688;-76
2022/04/01 04:51:56;;;;;;;5.80;5.30;;;5.40;99.90;;;;;;5050793;28;20173;-76
2022/04/01 04:54:26;;;;;;;6.40;5.90;;;5.40;99.90;;;;;;5050673;28;20180;-76
2022/04/01 04:57:16;;;;;;;5.90;5.35;;;5.30;99.90;;;;;;5051747;28;20531;-76
2022/04/01 04:59:42;;;;;;;6.35;5.85;;;5.30;99.90;;;;;;5050598;28;20254;-77
2022/04/01 05:02:19;;;;;;;6.15;5.28;;;5.30;99.90;;;;;;5034691;28;20173;-76
2022/04/01 05:05:12;;;;;;;4.78;4.38;;;5.30;99.90;;;;;;5050737;28;20711;-76
2022/04/01 05:08:30;;;;;;;5.40;4.90;;;5.20;99.90;;;;;;5051695;28;20525;-77
2022/04/01 05:11:24;;;;;;;5.75;5.18;;;5.20;99.90;;;;;;5051245;28;20578;-76
2022/04/01 05:14:05;;;;;;;5.72;5.13;;;5.20;99.90;;;;;;5050994;28;20173;-77
2022/04/01 05:16:31;;;;;;;5.53;4.75;;;5.20;99.90;;;;;;5034020;28;20251;-76
2022/04/01 05:19:09;;;;;;;6.18;4.95;;;5.20;99.90;;;;;;5033769;28;20586;-76
2022/04/01 05:21:53;;;;;;;4.25;3.90;;;5.20;99.90;;;;;;5041244;28;20326;-76
2022/04/01 05:24:26;;;;;;;4.57;4.10;;;5.20;99.90;;;;;;5034230;28;20659;-76
2022/04/01 05:26:55;;;;;;;5.30;4.57;;;5.20;99.90;;;;;;5053043;28;20167;-76
2022/04/01 05:29:43;;;;;;;4.63;4.20;;;5.10;99.90;;;;;;5051417;28;20287;-76
2022/04/01 05:32:11;;;;;;;6.25;5.68;;;5.20;99.90;;;;;;5033666;28;20191;-76
2022/04/01 05:34:49;;;;;;;6.03;4.82;;;5.10;99.90;;;;;;5050432;28;20168;-76
2022/04/01 05:37:17;;;;;;;6.78;6.07;;;5.20;99.90;;;;;;5052630;28;20227;-76
2022/04/01 05:39:48;;;;;;;5.97;4.70;;;5.20;99.90;;;;;;5055819;28;20205;-76
2022/04/01 05:42:18;;;;;;;5.97;5.38;;;5.20;99.90;;;;;;5050707;28;20656;-76
2022/04/01 05:45:04;;;;;;;6.20;5.65;;;5.20;99.90;;;;;;5051862;28;20208;-77
2022/04/01 05:47:31;;;;;;;5.80;5.20;;;5.20;99.90;;;;;;5050155;28;20165;-77
2022/04/01 05:49:59;;;;;;;6.25;5.70;;;5.20;99.90;;;;;;5050182;28;20169;-77
2022/04/01 05:52:28;;;;;;;4.40;4.00;;;5.10;99.90;;;;;;5041858;28;20231;-77
2022/04/01 05:54:56;;;;;;;4.03;3.70;;;5.20;99.90;;;;;;5044807;28;20673;-77
2022/04/01 05:57:21;;;;;;;3.97;3.60;;;5.10;99.90;;;;;;5059676;28;20161;-77
2022/04/01 05:59:48;;;;;;;4.82;4.40;;;5.20;99.90;;;;;;5062225;28;20560;-77
2022/04/01 06:02:41;;;;;;;4.78;4.32;;;5.10;99.90;;;;;;5042843;28;20173;-77
2022/04/01 06:05:31;;;;;;;3.45;3.05;;;5.10;99.90;;;;;;5058902;28;20705;-77
2022/04/01 06:07:57;;;;;;;5.10;4.70;;;5.20;99.90;;;;;;5054879;28;20712;-78
2022/04/01 06:10:29;;;;;;;5.53;5.13;;;5.00;99.90;;;;;;5040719;28;20774;-77
2022/04/01 06:13:52;;;;;;;4.35;3.95;;;5.00;99.90;;;;;;5048038;28;20269;-76
2022/04/01 06:16:52;;;;;;;4.35;3.95;;;5.10;99.90;;;;;;5057914;28;20287;-75
2022/04/01 06:19:25;;;;;;;5.85;3.55;;;5.20;99.90;;;;;;5037583;28;20172;-75
2022/04/01 06:22:05;;;;;;;3.60;3.30;;;5.20;99.90;;;;;;5053768;28;20176;-75
2022/04/01 06:25:10;;;;;;;3.85;3.55;;;5.20;99.90;;;;;;5053877;28;20657;-76
2022/04/01 06:27:45;;;;;;;4.63;4.20;;;5.30;99.90;;;;;;5053581;28;20584;-76
2022/04/01 06:30:21;;;;;;;4.53;4.10;;;5.20;99.90;;;;;;5053993;28;20632;-75
2022/04/01 06:33:31;;;;;;;3.78;3.47;;;5.30;99.90;;;;;;5054797;28;20185;-77
2022/04/01 06:36:44;;;;;;;4.00;3.60;;;5.30;99.90;;;;;;5012635;28;20498;-76
2022/04/01 06:39:25;;;;;;;3.25;2.97;;;5.20;99.90;;;;;;5046077;28;20192;-75
2022/04/01 06:41:57;;;;;;;3.92;3.60;;;5.20;99.90;;;;;;5056105;28;20270;-75
2022/04/01 06:45:01;;;;;;;3.83;3.53;;;5.20;99.90;;;;;;5012518;28;20206;-76
2022/04/01 06:47:47;;;;;;;4.43;3.20;;;5.20;99.90;;;;;;5002002;28;20182;-75
2022/04/01 06:50:20;;;;;;;4.75;4.35;;;5.30;99.90;;;;;;5037723;28;20193;-75
2022/04/01 06:53:05;;;;;;;3.85;3.55;;;5.20;99.90;;;;;;5053648;28;20220;-77
2022/04/01 06:55:54;;;;;;;4.38;3.97;;;5.20;99.90;;;;;;5054958;28;20204;-76
2022/04/01 06:58:29;;;;;;;4.80;3.92;;;5.20;99.90;;;;;;5053901;28;20188;-76
2022/04/01 07:01:02;;;;;;;4.10;3.70;;;5.20;99.90;;;;;;5055334;28;20598;-75
2022/04/01 07:03:28;;;;;;;4.18;3.80;;;5.10;99.90;;;;;;5054997;28;20204;-75
2022/04/01 07:05:55;;;;;;;4.30;3.90;;;5.10;99.90;;;;;;5054751;28;20209;-75
2022/04/01 07:08:21;;;;;;;4.45;3.80;;;5.10;99.90;;;;;;5054561;28;20169;-75
2022/04/01 07:10:47;;;;;;;3.33;3.13;;;5.10;99.90;;;;;;5054276;28;20180;-75
2022/04/01 07:13:13;;;;;;;4.53;4.13;;;5.10;99.90;;;;;;5054781;28;20169;-76
2022/04/01 07:15:39;;;;;;;4.25;3.42;;;5.10;99.90;;;;;;5034360;28;20660;-76
2022/04/01 07:18:06;;;;;;;3.53;3.23;;;5.10;99.90;;;;;;5036441;28;20205;-75
2022/04/01 07:20:32;;;;;;;3.38;3.08;;;5.10;99.90;;;;;;5034268;28;20991;-75
2022/04/01 07:22:58;;;;;;;3.40;3.13;;;5.10;99.90;;;;;;5033110;28;20170;-76
2022/04/01 07:25:24;;;;;;;3.67;3.37;;;5.10;99.90;;;;;;5033670;28;21033;-76
2022/04/01 07:27:51;;;;;;;3.53;3.25;;;5.10;99.90;;;;;;5033600;28;20603;-75
2022/04/01 07:30:17;;;;;;;3.13;2.88;;;5.10;99.90;;;;;;5031211;28;20173;-75
2022/04/01 07:32:44;;;;;;;3.73;3.43;;;5.10;99.90;;;;;;5033209;28;20178;-76
2022/04/01 07:35:14;;;;;;;4.32;3.92;;;5.20;99.90;;;;;;5029382;28;20206;-75
2022/04/01 07:37:45;;;;;;;3.55;3.25;;;5.20;99.90;;;;;;5015744;28;20181;-76
2022/04/01 07:40:11;;;;;;;3.35;3.05;;;5.20;99.90;;;;;;5033651;28;20676;-76
2022/04/01 07:42:38;;;;;;;3.80;3.40;;;5.20;99.90;;;;;;5033952;28;20173;-76
2022/04/01 07:45:05;;;;;;;4.10;3.45;;;5.30;99.90;;;;;;5032658;28;20255;-75
2022/04/01 07:47:32;;;;;;;3.95;3.55;;;5.30;99.90;;;;;;5032331;28;20177;-75
2022/04/01 07:49:59;;;;;;;3.70;3.40;;;5.30;99.90;;;;;;5033639;28;20260;-75
2022/04/01 07:52:24;;;;;;;3.70;3.15;;;5.40;99.90;;;;;;5032482;28;20247;-75
2022/04/01 07:54:51;;;;;;;2.92;2.72;;;5.40;99.90;;;;;;5036618;28;20196;-75
2022/04/01 07:57:18;;;;;;;3.13;2.90;;;5.40;99.90;;;;;;5032350;28;20173;-75
2022/04/01 07:59:44;;;;;;;4.07;3.67;;;5.50;99.90;;;;;;5032074;28;20285;-75
2022/04/01 08:02:11;;;;;;;2.67;2.28;;;5.50;99.90;;;;;;5033747;28;20181;-76
2022/04/01 08:04:37;;;;;;;2.80;2.40;;;5.50;99.90;;;;;;5032368;28;20666;-76
2022/04/01 08:07:03;;;;;;;5.10;2.10;;;5.50;99.90;;;;;;5034368;28;20162;-77
2022/04/01 08:09:29;;;;;;;3.08;2.80;;;5.60;99.90;;;;;;5033491;28;20248;-77
2022/04/01 08:11:55;;;;;;;2.83;2.63;;;5.60;99.90;;;;;;5034147;28;20193;-77
2022/04/01 08:14:21;;;;;;;3.20;2.90;;;5.70;99.90;;;;;;5032827;28;20750;-76
2022/04/01 08:16:48;;;;;;;3.85;3.50;;;5.70;99.90;;;;;;5035010;28;20182;-77
2022/04/01 08:19:14;;;;;;;3.50;3.20;;;5.70;99.90;;;;;;5034384;28;20185;-77
2022/04/01 08:21:41;;;;;;;2.50;2.30;;;5.80;99.90;;;;;;5032291;28;20546;-78
2022/04/01 08:24:07;;;;;;;2.72;2.53;;;5.80;99.90;;;;;;5032700;28;20193;-77
2022/04/01 08:26:34;;;;;;;3.38;2.75;;;5.90;99.90;;;;;;5033530;28;20186;-75
2022/04/01 08:29:00;;;;;;;3.33;3.03;;;5.90;99.90;;;;;;5032851;28;20174;-75
2022/04/01 08:31:27;;;;;;;2.70;2.50;;;5.90;99.90;;;;;;5034382;28;20170;-76
2022/04/01 08:33:54;;;;;;;3.03;2.83;;;5.90;99.90;;;;;;5034256;28;20268;-76
2022/04/01 08:36:20;;;;;;;3.95;3.08;;;6.00;99.90;;;;;;5030752;28;20193;-75
2022/04/01 08:38:46;;;;;;;3.47;3.17;;;6.10;99.90;;;;;;5029599;28;20173;-76
2022/04/01 08:41:17;;;;;;;2.60;2.40;;;6.10;99.90;;;;;;5032160;28;20336;-76
2022/04/01 08:43:45;;;;;;;3.70;2.60;;;6.10;99.90;;;;;;5033019;28;20165;-76
2022/04/01 08:46:12;;;;;;;3.33;3.05;;;6.20;99.90;;;;;;5031901;28;20216;-76
2022/04/01 08:48:38;;;;;;;2.65;2.45;;;6.30;99.90;;;;;;5031530;28;20231;-76
2022/04/01 08:51:04;;;;;;;3.70;2.67;;;6.30;99.90;;;;;;5032825;28;20193;-76
2022/04/01 08:53:37;;;;;;;3.70;3.40;;;6.30;99.90;;;;;;5031444;28;20720;-76
2022/04/01 08:56:03;;;;;;;3.00;2.80;;;6.30;99.90;;;;;;5029332;28;20632;-75
2022/04/01 08:58:29;;;;;;;4.50;3.70;;;6.40;99.90;;;;;;5032169;28;20173;-75
2022/04/01 09:00:57;;;;;;;5.15;4.65;;;6.40;99.90;;;;;;5030816;28;20208;-76
2022/04/01 09:03:24;;;;;;;3.63;3.33;;;6.30;99.90;;;;;;5032010;28;20261;-76
2022/04/01 09:05:58;;;;;;;3.38;3.15;;;6.30;99.90;;;;;;5031740;28;20594;-76
2022/04/01 09:08:25;;;;;;;3.45;3.15;;;6.30;99.90;;;;;;5032605;28;20166;-76
2022/04/01 09:11:01;;;;;;;3.70;2.90;;;6.30;99.90;;;;;;5035285;28;20165;-75
2022/04/01 09:13:47;;;;;;;4.30;3.90;;;6.30;99.90;;;;;;5033175;28;20569;-77
2022/04/01 09:16:31;;;;;;;3.65;3.35;;;6.30;99.90;;;;;;5032812;28;20205;-77
2022/04/01 09:19:04;;;;;;;3.00;2.70;;;6.30;99.90;;;;;;5032832;28;20526;-77
2022/04/01 09:21:32;;;;;;;3.28;2.20;;;6.20;99.90;;;;;;5045174;28;20197;-77
2022/04/01 09:23:59;;;;;;;3.10;2.90;;;6.20;99.90;;;;;;5041325;28;20710;-77
2022/04/01 09:26:34;;;;;;;2.95;2.65;;;6.20;99.90;;;;;;5040471;28;20204;-75
2022/04/01 09:29:00;;;;;;;4.03;3.63;;;6.20;99.90;;;;;;5030549;28;20174;-76
2022/04/01 09:31:31;;;;;;;3.42;3.13;;;6.10;99.90;;;;;;5030927;28;20256;-78
2022/04/01 09:33:57;;;;;;;3.60;3.30;;;6.10;99.90;;;;;;5031894;28;20703;-78
2022/04/01 09:36:33;;;;;;;4.32;3.83;;;6.00;99.90;;;;;;5030342;28;20216;-76
2022/04/01 09:39:06;;;;;;;4.30;3.05;;;6.10;99.90;;;;;;5040541;28;20258;-76
2022/04/01 09:41:37;;;;;;;3.40;3.10;;;6.10;99.90;;;;;;5052951;28;20236;-75
2022/04/01 09:44:09;;;;;;;4.72;3.22;;;6.10;99.90;;;;;;5056207;28;20187;-75
2022/04/01 09:46:42;;;;;;;3.70;3.40;;;6.10;99.90;;;;;;5058900;28;20344;-75
2022/04/01 09:49:08;;;;;;;3.10;2.90;;;6.10;99.90;;;;;;5054844;28;20169;-75
2022/04/01 09:51:39;;;;;;;3.03;2.70;;;6.10;99.90;;;;;;5055989;28;20177;-76
2022/04/01 09:54:05;;;;;;;2.90;2.65;;;6.10;99.90;;;;;;5040275;28;20177;-76
2022/04/01 09:56:42;;;;;;;3.07;2.50;;;6.10;99.90;;;;;;5035343;28;20235;-77
2022/04/01 09:59:09;;;;;;;3.53;3.22;;;6.10;99.90;;;;;;5036955;28;20177;-76
2022/04/01 10:01:37;;;;;;;3.40;2.45;;;6.10;99.90;;;;;;5032173;28;20193;-75
2022/04/01 10:04:04;;;;;;;2.53;2.22;;;6.10;99.90;;;;;;5035200;28;20497;-76
2022/04/01 10:06:32;;;;;;;2.65;2.45;;;6.10;99.90;;;;;;5034922;28;20761;-77
2022/04/01 10:09:01;;;;;;;3.35;2.78;;;6.00;99.90;;;;;;5033750;28;20213;-77
2022/04/01 10:11:29;;;;;;;3.00;2.50;;;6.00;99.90;;;;;;5034854;28;20216;-77
2022/04/01 10:14:22;;;;;;;2.70;2.20;;;6.00;99.90;;;;;;5035128;28;20231;-76
2022/04/01 10:16:49;;;;;;;3.38;2.47;;;6.00;99.90;;;;;;5033479;28;20573;-76
2022/04/01 10:19:22;;;;;;;3.10;2.72;;;6.00;99.90;;;;;;5034825;28;20180;-75
2022/04/01 10:21:48;;;;;;;2.67;2.47;;;5.90;99.90;;;;;;5034755;28;20229;-75
2022/04/01 10:24:14;;;;;;;2.80;2.00;;;5.90;99.90;;;;;;5039573;28;20227;-75
2022/04/01 10:27:00;;;;;;;4.30;2.60;;;5.90;99.90;;;;;;5031651;28;20670;-74
2022/04/01 10:29:26;;;;;;;2.40;2.20;;;5.90;99.90;;;;;;5031737;28;20173;-74
2022/04/01 10:31:54;;;;;;;3.00;2.70;;;5.90;99.90;;;;;;5035010;28;21061;-75
2022/04/01 10:34:24;;;;;;;2.63;2.30;;;5.90;99.90;;;;;;5035364;28;20166;-75
2022/04/01 10:37:01;;;;;;;2.55;2.25;;;5.90;99.90;;;;;;5035236;28;20197;-75
2022/04/01 10:39:28;;;;;;;2.63;2.40;;;5.90;99.90;;;;;;5033662;28;20174;-76
2022/04/01 10:42:12;;;;;;;5.05;2.45;;;6.00;99.90;;;;;;5035203;28;20792;-75
2022/04/01 10:45:00;;;;;;;4.05;2.67;;;6.00;99.90;;;;;;5035058;28;20192;-75
2022/04/01 10:53:46;;;;;;;3.38;2.70;;;6.20;99.90;;;;;;5034632;28;20571;-76
2022/04/01 10:56:38;;;;;;;2.63;2.42;;;6.20;99.90;;;;;;5034731;28;20196;-77
2022/04/01 10:59:22;;;;;;;2.70;2.50;;;6.30;99.90;;;;;;5005329;28;20716;-77
2022/04/01 11:01:56;;;;;;;3.05;2.70;;;6.30;99.90;;;;;;5034577;28;20736;-77
2022/04/01 11:04:25;;;;;;;3.00;2.20;;;6.40;99.90;;;;;;5034556;28;20172;-76
2022/04/01 11:06:57;;;;;;;3.15;2.10;;;6.50;99.90;;;;;;5033749;28;20706;-77
2022/04/01 11:09:51;;;;;;;2.50;2.30;;;6.50;99.90;;;;;;5033155;28;20702;-76
2022/04/01 11:12:21;;;;;;;2.85;2.30;;;6.60;99.90;;;;;;5034477;28;20189;-77
2022/04/01 11:14:53;;;;;;;3.17;2.35;;;6.70;99.90;;;;;;5033066;28;20202;-77
2022/04/01 11:17:20;;;;;;;2.38;2.17;;;6.80;99.90;;;;;;5033123;28;20184;-76
2022/04/01 11:20:14;;;;;;;3.45;2.35;;;6.80;99.90;;;;;;5033547;28;20184;-77
2022/04/01 11:22:41;;;;;;;2.47;2.28;;;6.90;99.90;;;;;;5034303;28;20165;-76
2022/04/01 11:25:12;;;;;;;2.58;1.80;;;7.00;99.90;;;;;;5034236;28;20664;-76
2022/04/01 11:27:50;;;;;;;2.33;2.13;;;7.00;99.90;;;;;;5033644;28;20188;-75
2022/04/01 11:30:22;;;;;;;6.93;3.08;;;7.00;99.90;;;;;;5034296;28;20184;-77
2022/04/01 11:32:53;;;;;;;2.58;1.95;;;6.90;99.90;;;;;;5034910;28;20170;-77
2022/04/01 11:35:22;;;;;;;2.10;1.67;;;6.90;99.90;;;;;;5032999;28;20197;-78
2022/04/01 11:37:49;;;;;;;2.00;1.80;;;6.80;99.90;;;;;;5036436;28;20535;-77
2022/04/01 11:40:25;;;;;;;2.05;1.70;;;6.80;99.90;;;;;;5033608;28;20193;-75
2022/04/01 11:42:54;;;;;;;2.25;2.03;;;6.80;99.90;;;;;;5033432;28;20170;-77
2022/04/01 11:45:20;;;;;;;2.97;1.90;;;6.70;99.90;;;;;;5033408;28;20277;-74
2022/04/01 11:47:48;;;;;;;2.38;1.95;;;6.70;99.90;;;;;;5032186;28;20188;-74
2022/04/01 11:50:17;;;;;;;3.58;2.30;;;6.60;99.90;;;;;;5032767;28;20589;-75
2022/04/01 11:52:45;;;;;;;2.85;2.15;;;6.60;99.90;;;;;;5033806;28;20174;-75
2022/04/01 11:55:13;;;;;;;1.70;1.52;;;6.60;99.90;;;;;;5034944;28;20182;-75
2022/04/01 11:57:40;;;;;;;2.00;1.40;;;6.60;99.90;;;;;;5033773;28;20184;-75
2022/04/01 12:00:17;;;;;;;2.08;1.60;;;6.60;99.90;;;;;;5020887;28;20569;-75
2022/04/01 12:02:47;;;;;;;2.20;1.50;;;6.60;99.90;;;;;;5055226;28;20606;-75
2022/04/01 12:05:15;;;;;;;2.60;1.83;;;6.70;99.90;;;;;;5055286;28;20665;-76
2022/04/01 12:10:29;;;;;;;2.25;1.60;;;6.70;99.90;;;;;;5054060;28;20660;-76
2022/04/01 12:13:08;;;;;;;2.13;1.92;;;6.60;99.90;;;;;;5036026;28;20670;-75
2022/04/01 12:15:40;;;;;;;1.90;1.70;;;6.60;99.90;;;;;;5051488;28;20201;-76
2022/04/01 12:18:07;;;;;;;3.40;1.67;;;6.60;99.90;;;;;;5035259;28;20173;-74
2022/04/01 12:20:48;;;;;;;2.65;2.13;;;6.50;99.90;;;;;;5037387;28;20201;-76
2022/04/01 12:23:16;;;;;;;2.40;1.50;;;6.40;99.90;;;;;;5042712;28;20184;-76
2022/04/01 12:25:44;;;;;;;3.63;2.22;;;6.40;99.90;;;;;;5045918;28;20200;-75
2022/04/01 12:28:12;;;;;;;3.42;3.03;;;6.30;99.90;;;;;;5044088;28;20176;-77
2022/04/01 12:30:42;;;;;;;2.13;1.92;;;6.30;99.90;;;;;;5039885;28;20182;-74
2022/04/01 12:33:19;;;;;;;2.38;1.88;;;6.30;99.90;;;;;;5038584;28;20187;-74
2022/04/01 12:35:52;;;;;;;2.80;2.30;;;6.40;99.90;;;;;;5022555;28;20204;-74
2022/04/01 12:38:18;;;;;;;1.80;1.60;;;6.40;99.90;;;;;;5044397;28;20177;-75
2022/04/01 12:40:45;;;;;;;3.90;2.22;;;6.30;99.90;;;;;;5047049;28;20199;-75
2022/04/01 12:43:29;;;;;;;3.47;2.10;;;6.40;99.90;;;;;;5043323;28;20176;-77
2022/04/01 12:46:10;;;;;;;2.00;1.80;;;6.50;99.90;;;;;;5043764;28;20201;-77
2022/04/01 12:48:46;;;;;;;3.00;1.95;;;6.60;99.90;;;;;;5043077;28;20169;-76
2022/04/01 12:51:20;;;;;;;4.00;2.70;;;6.70;99.90;;;;;;5051885;28;20259;-76
2022/04/01 12:53:57;;;;;;;3.10;2.75;;;6.70;99.90;;;;;;5047360;28;20223;-76
2022/04/01 12:56:41;;;;;;;2.97;2.28;;;6.60;99.90;;;;;;5044356;28;20219;-76
2022/04/01 12:59:16;;;;;;;2.25;1.88;;;6.80;99.90;;;;;;5033551;28;20649;-76
2022/04/01 13:01:43;;;;;;;3.20;2.50;;;6.90;99.90;;;;;;5033656;28;20205;-76
2022/04/01 13:04:17;;;;;;;2.75;2.05;;;7.00;99.90;;;;;;5047029;28;20268;-76
2022/04/01 13:06:43;;;;;;;2.90;2.28;;;7.00;99.90;;;;;;5036413;28;20216;-76
2022/04/01 13:09:10;;;;;;;3.00;2.37;;;7.10;99.90;;;;;;5047649;28;20169;-77
2022/04/01 13:11:44;;;;;;;2.90;2.60;;;7.20;99.90;;;;;;5041100;28;20181;-77
2022/04/01 13:14:24;;;;;;;3.25;2.20;;;7.20;99.90;;;;;;5046285;28;20282;-76
2022/04/01 13:16:58;;;;;;;3.67;2.80;;;7.20;99.90;;;;;;5030059;28;20220;-76
2022/04/01 13:19:30;;;;;;;2.97;2.03;;;7.20;99.90;;;;;;5044515;28;20177;-77
2022/04/01 13:22:01;;;;;;;2.75;2.30;;;7.20;99.90;;;;;;5043925;28;20594;-75
2022/04/01 13:24:33;;;;;;;3.65;2.75;;;7.20;99.90;;;;;;5045493;28;20181;-75
2022/04/01 13:27:00;;;;;;;3.33;2.20;;;7.30;99.90;;;;;;5044659;28;20289;-77
2022/04/01 13:29:26;;;;;;;2.40;2.08;;;7.30;99.90;;;;;;5040625;28;20174;-77
2022/04/01 13:31:55;;;;;;;2.43;2.23;;;7.40;99.90;;;;;;5040289;28;20280;-75
2022/04/01 13:34:21;;;;;;;2.60;2.15;;;7.40;99.90;;;;;;5045061;28;20592;-76